Time;durP1;ratioP1;P1;durP2;ratioP2;P2;SDS_P1;SDS_P2;PMS_P1;PMS_P2;Temp;Humidity;BMP_temperature;BMP_pressure;BME280_temperature;BME280_humidity;BME280_pressure;Samples;Min_cycle;Max_cycle;Signal;HPM_P1;HPM_P2
2023/01/30 00:00:45;;;;;;;0.10;0.10;;;;;;;;;;1744131;28;20230;-65
2023/01/30 00:01:36;;;;;;;0.20;0.20;;;;;;;;;;1745745;28;20255;-64
2023/01/30 00:02:28;;;;;;;0.20;0.20;;;;;;;;;;1747801;28;20271;-64
2023/01/30 00:03:20;;;;;;;0.10;0.10;;;;;;;;;;1748423;28;20251;-65
2023/01/30 00:04:12;;;;;;;0.30;0.30;;;;;;;;;;1745861;28;20222;-65
2023/01/30 00:05:03;;;;;;;0.15;0.15;;;;;;;;;;1747780;28;20206;-65
2023/01/30 00:05:55;;;;;;;0.10;0.10;;;;;;;;;;1744387;28;20230;-65
2023/01/30 00:06:46;;;;;;;0.10;0.10;;;;;;;;;;1745881;28;20248;-65
2023/01/30 00:07:38;;;;;;;0.10;0.10;;;;;;;;;;1749671;28;20198;-63
2023/01/30 00:08:29;;;;;;;0.15;0.15;;;;;;;;;;1747334;28;20648;-64
2023/01/30 00:09:21;;;;;;;0.10;0.10;;;;;;;;;;1747125;28;20677;-64
2023/01/30 00:10:12;;;;;;;0.17;0.17;;;;;;;;;;1746795;28;20206;-65
2023/01/30 00:11:05;;;;;;;0.30;0.30;;;;;;;;;;1750298;28;20274;-65
2023/01/30 00:11:57;;;;;;;0.25;0.25;;;;;;;;;;1752125;28;20250;-65
2023/01/30 00:12:49;;;;;;;0.10;0.10;;;;;;;;;;1751832;28;20218;-66
2023/01/30 00:13:41;;;;;;;0.10;0.10;;;;;;;;;;1746867;28;20211;-65
2023/01/30 00:14:33;;;;;;;0.10;0.10;;;;;;;;;;1752226;28;20202;-65
2023/01/30 00:15:24;;;;;;;0.10;0.10;;;;;;;;;;1743857;28;20677;-64
2023/01/30 00:16:16;;;;;;;0.10;0.10;;;;;;;;;;1746132;28;20269;-66
2023/01/30 00:17:07;;;;;;;0.20;0.20;;;;;;;;;;1749995;28;20600;-63
2023/01/30 00:17:59;;;;;;;0.10;0.10;;;;;;;;;;1749453;28;20209;-64
2023/01/30 00:18:50;;;;;;;0.10;0.10;;;;;;;;;;1745029;28;20206;-66
2023/01/30 00:19:42;;;;;;;0.20;0.20;;;;;;;;;;1748468;28;20724;-65
2023/01/30 00:20:33;;;;;;;0.10;0.10;;;;;;;;;;1743835;28;20617;-65
2023/01/30 00:21:25;;;;;;;0.15;0.15;;;;;;;;;;1746915;28;20229;-65
2023/01/30 00:22:16;;;;;;;0.10;0.10;;;;;;;;;;1751639;28;20287;-65
2023/01/30 00:23:07;;;;;;;0.20;0.20;;;;;;;;;;1749658;28;20255;-64
2023/01/30 00:24:00;;;;;;;0.10;0.10;;;;;;;;;;1744977;28;20720;-65
2023/01/30 00:24:51;;;;;;;0.05;0.05;;;;;;;;;;1746875;28;20210;-66
2023/01/30 00:25:45;;;;;;;0.10;0.10;;;;;;;;;;1745701;28;20351;-65
2023/01/30 00:26:36;;;;;;;0.10;0.10;;;;;;;;;;1746413;28;20636;-66
2023/01/30 00:27:30;;;;;;;0.20;0.20;;;;;;;;;;1748246;28;20262;-65
2023/01/30 00:28:21;;;;;;;0.30;0.30;;;;;;;;;;1748079;28;20623;-65
2023/01/30 00:29:13;;;;;;;0.20;0.20;;;;;;;;;;1746562;28;20198;-65
2023/01/30 00:30:06;;;;;;;0.10;0.10;;;;;;;;;;1748132;28;20275;-65
2023/01/30 00:30:58;;;;;;;0.20;0.20;;;;;;;;;;1743695;28;20276;-65
2023/01/30 00:31:49;;;;;;;0.10;0.10;;;;;;;;;;1745625;28;20206;-66
2023/01/30 00:32:41;;;;;;;0.10;0.10;;;;;;;;;;1750001;28;20201;-65
2023/01/30 00:33:32;;;;;;;0.20;0.20;;;;;;;;;;1750261;28;20618;-65
2023/01/30 00:34:24;;;;;;;0.20;0.20;;;;;;;;;;1745293;28;20202;-66
2023/01/30 00:35:15;;;;;;;0.10;0.10;;;;;;;;;;1748483;28;20213;-65
2023/01/30 00:36:07;;;;;;;0.10;0.10;;;;;;;;;;1752288;28;20678;-65
2023/01/30 00:36:58;;;;;;;0.10;0.10;;;;;;;;;;1745445;28;20218;-65
2023/01/30 00:37:50;;;;;;;0.22;0.22;;;;;;;;;;1751267;28;20244;-65
2023/01/30 00:38:41;;;;;;;0.10;0.10;;;;;;;;;;1746470;28;20817;-65
2023/01/30 00:39:33;;;;;;;0.20;0.20;;;;;;;;;;1748853;28;20699;-66
2023/01/30 00:40:25;;;;;;;0.20;0.20;;;;;;;;;;1748474;28;20457;-65
2023/01/30 00:41:17;;;;;;;0.20;0.20;;;;;;;;;;1746286;28;20206;-65
2023/01/30 00:47:07;;;;;;;0.20;0.20;;;;;;;;;;1738169;28;20261;-65
2023/01/30 00:47:59;;;;;;;0.10;0.10;;;;;;;;;;1732452;28;20307;-63
2023/01/30 00:48:51;;;;;;;0.20;0.20;;;;;;;;;;1738208;28;20647;-65
2023/01/30 00:49:42;;;;;;;0.20;0.20;;;;;;;;;;1738489;28;20211;-65
2023/01/30 00:50:42;;;;;;;0.30;0.30;;;;;;;;;;1736307;28;20296;-65
2023/01/30 00:51:33;;;;;;;0.30;0.30;;;;;;;;;;1738169;28;20203;-65
2023/01/30 00:52:25;;;;;;;0.20;0.20;;;;;;;;;;1738394;28;20234;-65
2023/01/30 00:53:16;;;;;;;0.10;0.10;;;;;;;;;;1737976;28;20280;-64
2023/01/30 00:54:08;;;;;;;0.20;0.20;;;;;;;;;;1738784;28;20686;-64
2023/01/30 00:54:59;;;;;;;0.10;0.10;;;;;;;;;;1734965;28;20206;-64
2023/01/30 00:55:51;;;;;;;0.10;0.10;;;;;;;;;;1736608;28;20276;-65
2023/01/30 00:56:42;;;;;;;0.10;0.10;;;;;;;;;;1738101;28;20639;-64
2023/01/30 00:57:34;;;;;;;0.10;0.10;;;;;;;;;;1738414;28;20901;-65
2023/01/30 00:58:27;;;;;;;0.10;0.10;;;;;;;;;;1737966;28;20202;-65
2023/01/30 00:59:19;;;;;;;0.40;0.40;;;;;;;;;;1738227;28;20207;-65
2023/01/30 01:00:10;;;;;;;0.10;0.10;;;;;;;;;;1738188;28;20264;-64
2023/01/30 01:01:02;;;;;;;0.20;0.20;;;;;;;;;;1737069;28;20296;-65
2023/01/30 01:01:53;;;;;;;0.05;0.05;;;;;;;;;;1738507;28;20256;-65
2023/01/30 01:02:45;;;;;;;0.20;0.20;;;;;;;;;;1739552;28;20250;-65
2023/01/30 01:03:36;;;;;;;0.22;0.22;;;;;;;;;;1739067;28;20214;-65
2023/01/30 01:04:28;;;;;;;0.30;0.30;;;;;;;;;;1739844;28;20206;-66
2023/01/30 01:05:19;;;;;;;0.10;0.10;;;;;;;;;;1737144;28;20272;-65
2023/01/30 01:06:11;;;;;;;0.30;0.30;;;;;;;;;;1739819;28;20768;-64
2023/01/30 01:07:02;;;;;;;0.10;0.10;;;;;;;;;;1739643;28;20570;-66
2023/01/30 01:07:54;;;;;;;0.08;0.08;;;;;;;;;;1739550;28;20522;-64
2023/01/30 01:08:45;;;;;;;0.38;0.38;;;;;;;;;;1739634;28;20279;-65
2023/01/30 01:09:38;;;;;;;0.20;0.20;;;;;;;;;;1739427;28;20203;-65
2023/01/30 01:10:29;;;;;;;0.20;0.20;;;;;;;;;;1737753;28;20263;-65
2023/01/30 01:11:24;;;;;;;0.15;0.15;;;;;;;;;;1739385;28;20257;-65
2023/01/30 01:12:15;;;;;;;0.17;0.17;;;;;;;;;;1739598;28;20622;-65
2023/01/30 01:13:09;;;;;;;0.10;0.10;;;;;;;;;;1739661;28;20380;-65
2023/01/30 01:14:02;;;;;;;0.15;0.15;;;;;;;;;;1737167;28;20317;-63
2023/01/30 01:14:54;;;;;;;0.28;0.28;;;;;;;;;;1739341;28;20238;-63
2023/01/30 01:15:45;;;;;;;0.10;0.10;;;;;;;;;;1733088;28;20277;-64
2023/01/30 01:16:37;;;;;;;0.10;0.10;;;;;;;;;;1732483;28;20211;-63
2023/01/30 01:17:28;;;;;;;0.17;0.17;;;;;;;;;;1732654;28;20560;-64
2023/01/30 01:18:20;;;;;;;0.10;0.10;;;;;;;;;;1732240;28;20191;-63
2023/01/30 01:19:11;;;;;;;0.45;0.45;;;;;;;;;;1732782;28;20215;-63
2023/01/30 01:20:02;;;;;;;0.13;0.13;;;;;;;;;;1732604;28;20269;-64
2023/01/30 01:20:54;;;;;;;0.15;0.15;;;;;;;;;;1730476;28;20285;-64
2023/01/30 01:21:45;;;;;;;0.20;0.20;;;;;;;;;;1732102;28;20726;-64
2023/01/30 01:22:37;;;;;;;0.22;0.22;;;;;;;;;;1732703;28;20694;-64
2023/01/30 01:23:28;;;;;;;0.20;0.20;;;;;;;;;;1732437;28;20249;-63
2023/01/30 01:24:20;;;;;;;0.10;0.10;;;;;;;;;;1732373;28;20277;-64
2023/01/30 01:25:11;;;;;;;0.10;0.10;;;;;;;;;;1732540;28;20212;-63
2023/01/30 01:26:03;;;;;;;0.10;0.10;;;;;;;;;;1731301;28;20662;-64
2023/01/30 01:26:54;;;;;;;0.13;0.13;;;;;;;;;;1732419;28;20211;-64
2023/01/30 01:27:46;;;;;;;0.10;0.10;;;;;;;;;;1732465;28;20254;-64
2023/01/30 01:28:37;;;;;;;0.10;0.10;;;;;;;;;;1732033;28;20268;-63
2023/01/30 01:29:30;;;;;;;0.03;0.03;;;;;;;;;;1732970;28;20705;-64
2023/01/30 01:30:22;;;;;;;0.20;0.20;;;;;;;;;;1730319;28;20626;-64
2023/01/30 01:31:14;;;;;;;0.10;0.10;;;;;;;;;;1732910;28;20207;-64
2023/01/30 01:32:05;;;;;;;0.10;0.10;;;;;;;;;;1732694;28;20364;-64
2023/01/30 01:32:57;;;;;;;0.20;0.20;;;;;;;;;;1732495;28;20204;-65
2023/01/30 01:33:48;;;;;;;0.20;0.20;;;;;;;;;;1732491;28;20203;-64
2023/01/30 01:34:40;;;;;;;0.10;0.10;;;;;;;;;;1732319;28;20199;-64
2023/01/30 01:35:31;;;;;;;0.10;0.10;;;;;;;;;;1730856;28;20231;-64
2023/01/30 01:36:23;;;;;;;0.10;0.10;;;;;;;;;;1732289;28;20191;-64
2023/01/30 01:37:15;;;;;;;0.10;0.10;;;;;;;;;;1732462;28;20265;-64
2023/01/30 01:38:07;;;;;;;0.10;0.10;;;;;;;;;;1732632;28;20495;-65
2023/01/30 01:38:58;;;;;;;0.20;0.20;;;;;;;;;;1732313;28;20211;-64
2023/01/30 01:41:04;;;;;;;0.10;0.10;;;;;;;;;;1730564;28;20258;-64
2023/01/30 01:41:55;;;;;;;0.17;0.17;;;;;;;;;;1732098;28;20240;-64
2023/01/30 01:42:46;;;;;;;0.20;0.20;;;;;;;;;;1732177;28;20236;-64
2023/01/30 01:43:39;;;;;;;0.20;0.20;;;;;;;;;;1731863;28;20211;-64
2023/01/30 01:44:45;;;;;;;0.20;0.20;;;;;;;;;;1732676;28;20203;-65
2023/01/30 01:45:39;;;;;;;0.10;0.10;;;;;;;;;;1724136;28;20541;-65
2023/01/30 01:46:31;;;;;;;0.10;0.10;;;;;;;;;;1726287;28;20343;-64
2023/01/30 01:47:23;;;;;;;0.10;0.10;;;;;;;;;;1727237;28;20646;-64
2023/01/30 01:48:18;;;;;;;0.10;0.10;;;;;;;;;;1729897;28;20270;-64
2023/01/30 01:49:14;;;;;;;0.20;0.20;;;;;;;;;;1727742;28;20583;-64
2023/01/30 01:50:06;;;;;;;0.10;0.10;;;;;;;;;;1725906;28;20213;-65
2023/01/30 01:50:59;;;;;;;0.10;0.10;;;;;;;;;;1724188;28;20355;-65
2023/01/30 01:51:53;;;;;;;0.20;0.20;;;;;;;;;;1725794;28;20262;-64
2023/01/30 01:52:45;;;;;;;0.15;0.15;;;;;;;;;;1730483;28;20258;-64
2023/01/30 01:53:39;;;;;;;0.10;0.10;;;;;;;;;;1731534;28;20241;-64
2023/01/30 01:54:34;;;;;;;0.10;0.10;;;;;;;;;;1725848;28;20200;-64
2023/01/30 01:55:26;;;;;;;0.10;0.10;;;;;;;;;;1723956;28;20212;-65
2023/01/30 01:56:19;;;;;;;0.20;0.20;;;;;;;;;;1726021;28;20244;-64
2023/01/30 01:57:12;;;;;;;0.17;0.17;;;;;;;;;;1725557;28;20265;-65
2023/01/30 01:58:09;;;;;;;0.25;0.25;;;;;;;;;;1725803;28;20663;-65
2023/01/30 01:59:02;;;;;;;0.20;0.20;;;;;;;;;;1728872;28;20653;-64
2023/01/30 01:59:57;;;;;;;0.10;0.10;;;;;;;;;;1728365;28;20238;-64
2023/01/30 02:00:49;;;;;;;0.20;0.20;;;;;;;;;;1724383;28;20689;-64
2023/01/30 02:01:41;;;;;;;0.10;0.10;;;;;;;;;;1725533;28;20208;-65
2023/01/30 02:02:32;;;;;;;0.10;0.10;;;;;;;;;;1728579;28;20212;-65
2023/01/30 02:03:25;;;;;;;0.10;0.10;;;;;;;;;;1728021;28;20208;-65
2023/01/30 02:05:00;;;;;;;0.30;0.30;;;;;;;;;;1731374;28;20235;-65
2023/01/30 02:05:30;;;;;;;0.20;0.20;;;;;;;;;;1725302;28;20196;-64
2023/01/30 02:06:22;;;;;;;0.20;0.20;;;;;;;;;;1731324;28;20599;-65
2023/01/30 02:07:15;;;;;;;0.10;0.10;;;;;;;;;;1725806;28;20208;-64
2023/01/30 02:08:08;;;;;;;0.15;0.15;;;;;;;;;;1730711;28;20257;-64
2023/01/30 02:09:03;;;;;;;0.10;0.10;;;;;;;;;;1728781;28;20485;-65
2023/01/30 02:09:54;;;;;;;0.10;0.10;;;;;;;;;;1728323;28;20208;-65
2023/01/30 02:10:53;;;;;;;0.10;0.10;;;;;;;;;;1724118;28;20267;-64
2023/01/30 02:11:47;;;;;;;0.10;0.10;;;;;;;;;;1725468;28;20258;-65
2023/01/30 02:12:39;;;;;;;0.10;0.10;;;;;;;;;;1728983;28;20207;-64
2023/01/30 02:13:31;;;;;;;0.20;0.20;;;;;;;;;;1728483;28;20217;-63
2023/01/30 02:14:23;;;;;;;0.38;0.38;;;;;;;;;;1727134;28;20295;-64
2023/01/30 02:15:14;;;;;;;0.10;0.10;;;;;;;;;;1726901;28;20289;-65
2023/01/30 02:16:08;;;;;;;0.20;0.20;;;;;;;;;;1738297;28;20705;-65
2023/01/30 02:16:59;;;;;;;0.10;0.10;;;;;;;;;;1738518;28;20202;-64
2023/01/30 02:17:51;;;;;;;0.20;0.20;;;;;;;;;;1734964;28;20271;-64
2023/01/30 02:18:43;;;;;;;0.05;0.05;;;;;;;;;;1737775;28;20669;-64
2023/01/30 02:19:43;;;;;;;0.10;0.10;;;;;;;;;;1735490;28;20666;-64
2023/01/30 02:20:40;;;;;;;0.17;0.17;;;;;;;;;;1733960;28;20255;-64
2023/01/30 02:21:51;;;;;;;0.20;0.20;;;;;;;;;;1734439;28;20198;-65
2023/01/30 02:22:55;;;;;;;0.00;0.00;;;;;;;;;;1739037;28;20211;-64
2023/01/30 02:23:57;;;;;;;0.30;0.30;;;;;;;;;;1735363;28;20234;-65
2023/01/30 02:24:55;;;;;;;0.20;0.20;;;;;;;;;;1736847;28;20682;-64
2023/01/30 02:26:00;;;;;;;0.10;0.10;;;;;;;;;;1732830;28;20546;-64
2023/01/30 02:27:15;;;;;;;0.10;0.10;;;;;;;;;;1732277;28;20297;-65
2023/01/30 02:28:18;;;;;;;0.10;0.10;;;;;;;;;;1732290;28;20188;-65
2023/01/30 02:29:22;;;;;;;0.00;0.00;;;;;;;;;;1732646;28;20265;-64
2023/01/30 02:30:22;;;;;;;0.17;0.17;;;;;;;;;;1730155;28;20202;-65
2023/01/30 02:31:20;;;;;;;0.20;0.20;;;;;;;;;;1732526;28;20253;-62
2023/01/30 02:32:18;;;;;;;0.10;0.10;;;;;;;;;;1733193;28;20204;-64
2023/01/30 02:33:13;;;;;;;0.10;0.10;;;;;;;;;;1732124;28;20207;-65
2023/01/30 02:34:12;;;;;;;0.15;0.15;;;;;;;;;;1732427;28;20234;-64
2023/01/30 02:35:09;;;;;;;0.15;0.15;;;;;;;;;;1736241;28;20203;-64
2023/01/30 02:36:07;;;;;;;0.15;0.15;;;;;;;;;;1731020;28;20231;-64
2023/01/30 02:37:03;;;;;;;0.20;0.20;;;;;;;;;;1731963;28;20744;-64
2023/01/30 02:38:00;;;;;;;0.10;0.10;;;;;;;;;;1737870;28;20207;-63
2023/01/30 02:38:56;;;;;;;0.13;0.13;;;;;;;;;;1735796;28;20792;-64
2023/01/30 02:39:56;;;;;;;0.10;0.10;;;;;;;;;;1734939;28;20210;-65
2023/01/30 02:40:52;;;;;;;0.10;0.10;;;;;;;;;;1730414;28;20703;-64
2023/01/30 02:41:48;;;;;;;0.22;0.22;;;;;;;;;;1735884;28;20322;-65
2023/01/30 02:42:44;;;;;;;0.10;0.10;;;;;;;;;;1738813;28;20573;-64
2023/01/30 02:43:40;;;;;;;0.13;0.13;;;;;;;;;;1735210;28;20249;-63
2023/01/30 02:44:34;;;;;;;0.22;0.22;;;;;;;;;;1734861;28;20212;-64
2023/01/30 02:45:29;;;;;;;0.00;0.00;;;;;;;;;;1730115;28;20204;-64
2023/01/30 02:46:24;;;;;;;0.00;0.00;;;;;;;;;;1732259;28;20188;-64
2023/01/30 02:47:18;;;;;;;0.20;0.20;;;;;;;;;;1732227;28;20212;-64
2023/01/30 02:48:11;;;;;;;0.10;0.10;;;;;;;;;;1737081;28;20572;-64
2023/01/30 02:49:06;;;;;;;0.10;0.10;;;;;;;;;;1735157;28;20658;-64
2023/01/30 02:50:00;;;;;;;0.10;0.10;;;;;;;;;;1734587;28;20212;-64
2023/01/30 02:50:56;;;;;;;0.20;0.20;;;;;;;;;;1730590;28;20595;-63
2023/01/30 02:51:49;;;;;;;0.10;0.10;;;;;;;;;;1731642;28;20301;-64
2023/01/30 02:52:41;;;;;;;0.00;0.00;;;;;;;;;;1735722;28;20282;-64
2023/01/30 02:53:33;;;;;;;0.13;0.13;;;;;;;;;;1735786;28;20688;-64
2023/01/30 02:54:25;;;;;;;0.08;0.08;;;;;;;;;;1733732;28;20204;-63
2023/01/30 02:55:19;;;;;;;0.17;0.17;;;;;;;;;;1736488;28;20214;-64
2023/01/30 02:56:10;;;;;;;0.10;0.10;;;;;;;;;;1732401;28;20200;-64
2023/01/30 02:57:01;;;;;;;0.10;0.10;;;;;;;;;;1731858;28;20686;-63
2023/01/30 02:57:54;;;;;;;0.08;0.08;;;;;;;;;;1737146;28;20670;-63
2023/01/30 02:58:48;;;;;;;0.10;0.10;;;;;;;;;;1734766;28;20233;-64
2023/01/30 02:59:42;;;;;;;0.10;0.10;;;;;;;;;;1734572;28;20702;-62
2023/01/30 03:00:40;;;;;;;0.13;0.13;;;;;;;;;;1732857;28;20239;-63
2023/01/30 03:01:42;;;;;;;0.00;0.00;;;;;;;;;;1736225;28;20286;-63
2023/01/30 03:02:42;;;;;;;0.10;0.10;;;;;;;;;;1736293;28;20200;-63
2023/01/30 03:03:41;;;;;;;0.20;0.20;;;;;;;;;;1738623;28;20617;-63
2023/01/30 03:04:40;;;;;;;0.25;0.25;;;;;;;;;;1734419;28;20673;-63
2023/01/30 03:05:38;;;;;;;0.10;0.10;;;;;;;;;;1736762;28;20598;-64
2023/01/30 03:06:34;;;;;;;0.10;0.10;;;;;;;;;;1736413;28;20199;-64
2023/01/30 03:07:34;;;;;;;0.25;0.25;;;;;;;;;;1733576;28;20563;-64
2023/01/30 03:08:29;;;;;;;0.10;0.10;;;;;;;;;;1735582;28;20207;-64
2023/01/30 03:09:26;;;;;;;0.10;0.10;;;;;;;;;;1733322;28;20291;-63
2023/01/30 03:10:22;;;;;;;0.28;0.28;;;;;;;;;;1730953;28;20250;-63
2023/01/30 03:11:14;;;;;;;0.15;0.15;;;;;;;;;;1739379;28;20313;-63
2023/01/30 03:12:07;;;;;;;0.20;0.20;;;;;;;;;;1731611;28;20208;-62
2023/01/30 03:13:03;;;;;;;0.20;0.20;;;;;;;;;;1737246;28;20296;-63
2023/01/30 03:13:55;;;;;;;0.20;0.20;;;;;;;;;;1734579;28;20234;-64
2023/01/30 03:14:49;;;;;;;0.10;0.10;;;;;;;;;;1736564;28;20207;-63
2023/01/30 03:15:42;;;;;;;0.10;0.10;;;;;;;;;;1737086;28;20721;-63
2023/01/30 03:16:36;;;;;;;0.10;0.10;;;;;;;;;;1736011;28;20225;-64
2023/01/30 03:17:29;;;;;;;0.20;0.20;;;;;;;;;;1733670;28;20203;-64
2023/01/30 03:18:21;;;;;;;0.03;0.03;;;;;;;;;;1733906;28;20234;-63
2023/01/30 03:19:13;;;;;;;0.20;0.20;;;;;;;;;;1739351;28;20754;-63
2023/01/30 03:20:05;;;;;;;0.20;0.20;;;;;;;;;;1734304;28;20305;-63
2023/01/30 03:20:56;;;;;;;0.15;0.15;;;;;;;;;;1729860;28;20746;-63
2023/01/30 03:21:48;;;;;;;0.10;0.10;;;;;;;;;;1732204;28;20208;-64
2023/01/30 03:22:40;;;;;;;0.20;0.20;;;;;;;;;;1731874;28;20260;-65
2023/01/30 03:23:31;;;;;;;0.20;0.20;;;;;;;;;;1736591;28;20313;-62
2023/01/30 03:24:23;;;;;;;0.10;0.10;;;;;;;;;;1733237;28;20211;-64
2023/01/30 03:25:17;;;;;;;0.10;0.10;;;;;;;;;;1732925;28;20209;-64
2023/01/30 03:26:11;;;;;;;0.10;0.10;;;;;;;;;;1732422;28;20188;-64
2023/01/30 03:27:04;;;;;;;0.10;0.10;;;;;;;;;;1731893;28;20246;-64
2023/01/30 03:27:56;;;;;;;0.10;0.10;;;;;;;;;;1736894;28;20215;-63
2023/01/30 03:28:49;;;;;;;0.10;0.10;;;;;;;;;;1734127;28;20670;-64
2023/01/30 03:29:40;;;;;;;0.20;0.20;;;;;;;;;;1734287;28;20203;-64
2023/01/30 03:30:32;;;;;;;0.20;0.20;;;;;;;;;;1732048;28;20726;-64
2023/01/30 03:31:23;;;;;;;0.20;0.20;;;;;;;;;;1737321;28;20210;-64
2023/01/30 03:32:15;;;;;;;0.00;0.00;;;;;;;;;;1732370;28;20643;-64
2023/01/30 03:33:07;;;;;;;0.30;0.30;;;;;;;;;;1731884;28;20207;-64
2023/01/30 03:33:59;;;;;;;0.20;0.20;;;;;;;;;;1734517;28;20723;-64
2023/01/30 03:34:50;;;;;;;0.10;0.10;;;;;;;;;;1734224;28;20215;-64
2023/01/30 03:35:43;;;;;;;0.10;0.10;;;;;;;;;;1733362;28;20288;-64
2023/01/30 03:36:34;;;;;;;0.13;0.13;;;;;;;;;;1735996;28;20207;-64
2023/01/30 03:37:26;;;;;;;0.10;0.10;;;;;;;;;;1732865;28;20206;-64
2023/01/30 03:38:17;;;;;;;0.08;0.08;;;;;;;;;;1735477;28;20204;-62
2023/01/30 03:39:09;;;;;;;0.10;0.10;;;;;;;;;;1734373;28;20258;-65
2023/01/30 03:40:00;;;;;;;0.10;0.10;;;;;;;;;;1734054;28;20289;-64
2023/01/30 03:40:52;;;;;;;0.10;0.10;;;;;;;;;;1734891;28;20686;-64
2023/01/30 03:41:44;;;;;;;0.10;0.10;;;;;;;;;;1734644;28;20621;-64
2023/01/30 03:42:36;;;;;;;0.22;0.22;;;;;;;;;;1734229;28;20204;-65
2023/01/30 03:43:27;;;;;;;0.10;0.10;;;;;;;;;;1735143;28;20200;-64
2023/01/30 03:44:19;;;;;;;0.15;0.15;;;;;;;;;;1743770;28;20238;-64
2023/01/30 03:45:10;;;;;;;0.10;0.10;;;;;;;;;;1750006;28;20733;-66
2023/01/30 03:46:03;;;;;;;0.10;0.10;;;;;;;;;;1750730;28;20225;-64
2023/01/30 03:46:54;;;;;;;0.20;0.20;;;;;;;;;;1746992;28;20718;-65
2023/01/30 03:47:46;;;;;;;0.20;0.20;;;;;;;;;;1749352;28;20623;-64
2023/01/30 03:48:38;;;;;;;0.10;0.10;;;;;;;;;;1748785;28;20258;-64
2023/01/30 03:49:30;;;;;;;0.00;0.00;;;;;;;;;;1747521;28;20266;-65
2023/01/30 03:50:21;;;;;;;0.20;0.20;;;;;;;;;;1744376;28;20202;-65
2023/01/30 03:51:13;;;;;;;0.10;0.10;;;;;;;;;;1753063;28;20580;-64
2023/01/30 03:52:04;;;;;;;0.00;0.00;;;;;;;;;;1744944;28;20271;-65
2023/01/30 03:52:56;;;;;;;0.10;0.10;;;;;;;;;;1750782;28;20699;-65
2023/01/30 03:53:47;;;;;;;0.20;0.20;;;;;;;;;;1747505;28;20258;-64
2023/01/30 03:54:39;;;;;;;0.00;0.00;;;;;;;;;;1747813;28;20493;-63
2023/01/30 03:55:30;;;;;;;0.10;0.10;;;;;;;;;;1745476;28;20602;-64
2023/01/30 03:56:22;;;;;;;0.00;0.00;;;;;;;;;;1751333;28;20282;-64
2023/01/30 03:57:13;;;;;;;0.10;0.10;;;;;;;;;;1745673;28;20211;-64
2023/01/30 03:58:05;;;;;;;0.15;0.15;;;;;;;;;;1750236;28;20201;-64
2023/01/30 03:58:56;;;;;;;0.10;0.10;;;;;;;;;;1747785;28;20613;-64
2023/01/30 03:59:48;;;;;;;0.00;0.00;;;;;;;;;;1747755;28;20198;-64
2023/01/30 04:00:39;;;;;;;0.10;0.10;;;;;;;;;;1746651;28;20293;-64
2023/01/30 04:01:31;;;;;;;0.10;0.10;;;;;;;;;;1750050;28;20202;-64
2023/01/30 04:02:24;;;;;;;0.17;0.17;;;;;;;;;;1745428;28;20670;-64
2023/01/30 04:03:16;;;;;;;0.20;0.20;;;;;;;;;;1748568;28;20205;-64
2023/01/30 04:04:08;;;;;;;0.00;0.00;;;;;;;;;;1747880;28;20768;-64
2023/01/30 04:05:00;;;;;;;0.10;0.10;;;;;;;;;;1747467;28;20265;-64
2023/01/30 04:05:51;;;;;;;0.00;0.00;;;;;;;;;;1748141;28;20282;-64
2023/01/30 04:06:43;;;;;;;0.10;0.10;;;;;;;;;;1748353;28;20260;-64
2023/01/30 04:07:34;;;;;;;0.05;0.05;;;;;;;;;;1747799;28;20782;-64
2023/01/30 04:08:26;;;;;;;0.10;0.10;;;;;;;;;;1748621;28;20209;-64
2023/01/30 04:09:17;;;;;;;0.20;0.20;;;;;;;;;;1746502;28;20206;-64
2023/01/30 04:10:09;;;;;;;0.20;0.20;;;;;;;;;;1745634;28;20213;-63
2023/01/30 04:11:00;;;;;;;0.00;0.00;;;;;;;;;;1749850;28;20532;-64
2023/01/30 04:11:52;;;;;;;0.05;0.05;;;;;;;;;;1746902;28;20198;-63
2023/01/30 04:12:43;;;;;;;0.10;0.10;;;;;;;;;;1748626;28;20628;-63
2023/01/30 04:13:35;;;;;;;0.10;0.10;;;;;;;;;;1748666;28;20565;-62
2023/01/30 04:14:26;;;;;;;0.08;0.08;;;;;;;;;;1747690;28;20202;-64
2023/01/30 04:15:18;;;;;;;0.20;0.20;;;;;;;;;;1743892;28;20243;-64
2023/01/30 04:16:17;;;;;;;0.10;0.10;;;;;;;;;;1752852;28;20194;-64
2023/01/30 04:17:09;;;;;;;0.20;0.20;;;;;;;;;;1745400;28;20693;-64
2023/01/30 04:18:00;;;;;;;0.00;0.00;;;;;;;;;;1748689;28;20209;-63
2023/01/30 04:18:52;;;;;;;0.17;0.17;;;;;;;;;;1747538;28;20201;-64
2023/01/30 04:19:44;;;;;;;0.08;0.08;;;;;;;;;;1747507;28;20266;-64
2023/01/30 04:20:37;;;;;;;0.00;0.00;;;;;;;;;;1745989;28;20245;-64
2023/01/30 04:21:28;;;;;;;0.10;0.10;;;;;;;;;;1751478;28;20288;-63
2023/01/30 04:22:20;;;;;;;0.10;0.10;;;;;;;;;;1752340;28;20702;-62
2023/01/30 04:23:11;;;;;;;0.20;0.20;;;;;;;;;;1752224;28;20291;-63
2023/01/30 04:24:03;;;;;;;0.00;0.00;;;;;;;;;;1748287;28;20237;-63
2023/01/30 04:24:54;;;;;;;0.10;0.10;;;;;;;;;;1747344;28;20274;-63
2023/01/30 04:25:47;;;;;;;0.10;0.10;;;;;;;;;;1746893;28;20296;-63
2023/01/30 04:26:38;;;;;;;0.10;0.10;;;;;;;;;;1750414;28;20649;-63
2023/01/30 04:27:30;;;;;;;0.10;0.10;;;;;;;;;;1751977;28;20857;-63
2023/01/30 04:28:21;;;;;;;0.30;0.30;;;;;;;;;;1748594;28;20206;-63
2023/01/30 04:29:13;;;;;;;0.20;0.20;;;;;;;;;;1747309;28;20236;-64
2023/01/30 04:30:04;;;;;;;0.20;0.20;;;;;;;;;;1747285;28;20214;-64
2023/01/30 04:30:56;;;;;;;0.10;0.10;;;;;;;;;;1748595;28;20278;-64
2023/01/30 04:31:47;;;;;;;0.10;0.10;;;;;;;;;;1750022;28;20266;-64
2023/01/30 04:32:39;;;;;;;0.10;0.10;;;;;;;;;;1752316;28;20267;-64
2023/01/30 04:33:34;;;;;;;0.10;0.10;;;;;;;;;;1746924;28;20741;-64
2023/01/30 04:34:25;;;;;;;0.00;0.00;;;;;;;;;;1746490;28;20608;-64
2023/01/30 04:35:18;;;;;;;0.10;0.10;;;;;;;;;;1744667;28;20259;-64
2023/01/30 04:36:10;;;;;;;0.08;0.08;;;;;;;;;;1745740;28;20206;-64
2023/01/30 04:37:02;;;;;;;0.20;0.20;;;;;;;;;;1746961;28;20206;-63
2023/01/30 04:37:53;;;;;;;0.10;0.10;;;;;;;;;;1751558;28;20269;-65
2023/01/30 04:38:45;;;;;;;0.10;0.10;;;;;;;;;;1748692;28;20201;-64
2023/01/30 04:39:36;;;;;;;0.25;0.25;;;;;;;;;;1748626;28;20534;-64
2023/01/30 04:40:28;;;;;;;0.10;0.10;;;;;;;;;;1745806;28;20198;-66
2023/01/30 04:41:19;;;;;;;0.22;0.22;;;;;;;;;;1752770;28;20652;-61
2023/01/30 04:42:11;;;;;;;0.10;0.10;;;;;;;;;;1752684;28;20201;-64
2023/01/30 04:43:02;;;;;;;0.20;0.20;;;;;;;;;;1752275;28;20342;-64
2023/01/30 04:43:54;;;;;;;0.10;0.10;;;;;;;;;;1748163;28;20274;-63
2023/01/30 04:44:45;;;;;;;0.10;0.10;;;;;;;;;;1772023;22;20225;-62
2023/01/30 04:45:37;;;;;;;0.10;0.10;;;;;;;;;;1744773;28;20704;-64
2023/01/30 04:46:28;;;;;;;0.30;0.30;;;;;;;;;;1748285;28;20259;-64
2023/01/30 04:47:20;;;;;;;0.20;0.20;;;;;;;;;;1753705;28;20201;-63
2023/01/30 04:48:11;;;;;;;0.15;0.15;;;;;;;;;;1748698;28;20210;-65
2023/01/30 04:49:03;;;;;;;0.10;0.10;;;;;;;;;;1751096;28;20205;-65
2023/01/30 04:49:54;;;;;;;0.08;0.08;;;;;;;;;;1752406;28;20210;-62
2023/01/30 04:50:49;;;;;;;0.15;0.15;;;;;;;;;;1751810;28;20784;-62
2023/01/30 04:51:40;;;;;;;0.10;0.10;;;;;;;;;;1751285;28;20262;-64
2023/01/30 04:52:32;;;;;;;0.03;0.03;;;;;;;;;;1753578;28;20201;-63
2023/01/30 04:53:24;;;;;;;0.20;0.20;;;;;;;;;;1753250;28;20672;-63
2023/01/30 04:54:16;;;;;;;0.20;0.20;;;;;;;;;;1748661;28;20199;-64
2023/01/30 04:55:07;;;;;;;0.10;0.10;;;;;;;;;;1753397;28;21594;-64
2023/01/30 04:55:59;;;;;;;0.10;0.10;;;;;;;;;;1751503;28;20225;-64
2023/01/30 04:56:50;;;;;;;0.13;0.13;;;;;;;;;;1753339;28;20197;-63
2023/01/30 04:57:42;;;;;;;0.10;0.10;;;;;;;;;;1753228;28;20205;-63
2023/01/30 04:58:33;;;;;;;0.13;0.13;;;;;;;;;;1753344;28;20629;-63
2023/01/30 04:59:25;;;;;;;0.40;0.40;;;;;;;;;;1753445;28;20228;-63
2023/01/30 05:00:16;;;;;;;0.10;0.10;;;;;;;;;;1751439;28;20255;-64
2023/01/30 05:01:15;;;;;;;0.10;0.10;;;;;;;;;;1753735;28;20209;-65
2023/01/30 05:02:06;;;;;;;0.08;0.08;;;;;;;;;;1752787;28;20252;-63
2023/01/30 05:02:58;;;;;;;0.30;0.30;;;;;;;;;;1753426;28;20205;-63
2023/01/30 05:03:50;;;;;;;0.00;0.00;;;;;;;;;;1753217;28;20274;-64
2023/01/30 05:04:42;;;;;;;0.10;0.10;;;;;;;;;;1753341;28;20225;-63
2023/01/30 05:05:33;;;;;;;0.00;0.00;;;;;;;;;;1751594;28;20290;-64
2023/01/30 05:06:26;;;;;;;0.10;0.10;;;;;;;;;;1753063;28;20211;-64
2023/01/30 05:07:17;;;;;;;0.15;0.15;;;;;;;;;;1753896;28;20250;-63
2023/01/30 05:08:09;;;;;;;0.00;0.00;;;;;;;;;;1752948;28;20209;-63
2023/01/30 05:09:01;;;;;;;0.10;0.10;;;;;;;;;;1753530;28;20864;-63
2023/01/30 05:09:53;;;;;;;0.10;0.10;;;;;;;;;;1753372;28;20284;-63
2023/01/30 05:10:44;;;;;;;0.20;0.20;;;;;;;;;;1751569;28;20234;-64
2023/01/30 05:11:36;;;;;;;0.10;0.10;;;;;;;;;;1753049;28;20209;-63
2023/01/30 05:12:27;;;;;;;0.20;0.20;;;;;;;;;;1752956;28;20339;-63
2023/01/30 05:13:19;;;;;;;0.15;0.15;;;;;;;;;;1753415;28;20247;-64
2023/01/30 05:14:10;;;;;;;0.08;0.08;;;;;;;;;;1753396;28;20218;-63
2023/01/30 05:15:02;;;;;;;0.00;0.00;;;;;;;;;;1753266;28;20205;-64
2023/01/30 05:15:53;;;;;;;0.10;0.10;;;;;;;;;;1751466;28;20229;-64
2023/01/30 05:16:45;;;;;;;0.10;0.10;;;;;;;;;;1752901;28;20198;-64
2023/01/30 05:17:36;;;;;;;0.10;0.10;;;;;;;;;;1753495;28;20201;-63
2023/01/30 05:18:28;;;;;;;0.20;0.20;;;;;;;;;;1752776;28;20649;-63
2023/01/30 05:19:19;;;;;;;0.20;0.20;;;;;;;;;;1753792;28;20209;-63
2023/01/30 05:20:11;;;;;;;0.10;0.10;;;;;;;;;;1752200;28;20244;-63
2023/01/30 05:21:03;;;;;;;0.10;0.10;;;;;;;;;;1751702;28;20289;-64
2023/01/30 05:21:56;;;;;;;0.10;0.10;;;;;;;;;;1752862;28;20212;-64
2023/01/30 05:22:47;;;;;;;0.10;0.10;;;;;;;;;;1753255;28;20676;-63
2023/01/30 05:23:39;;;;;;;0.00;0.00;;;;;;;;;;1753014;28;20201;-63